createdAt,value
2019-05-18T00:01:51.787Z,11.04
2019-05-18T00:04:37.966Z,11.01
2019-05-18T00:07:24.081Z,10.95
2019-05-18T00:10:14.164Z,10.97
2019-05-18T00:13:00.670Z,10.99
2019-05-18T00:15:46.999Z,10.92
2019-05-18T00:18:33.402Z,10.95
2019-05-18T00:21:19.570Z,10.93
2019-05-18T00:24:05.858Z,11.01
2019-05-18T00:26:55.059Z,11.07
2019-05-18T00:29:41.321Z,11.07
2019-05-18T00:32:27.245Z,11.08
2019-05-18T00:35:16.532Z,11.07
2019-05-18T00:38:01.631Z,11.02
2019-05-18T00:40:47.821Z,10.85
2019-05-18T00:43:34.042Z,10.75
2019-05-18T00:46:20.176Z,10.70
2019-05-18T00:49:06.415Z,10.68
2019-05-18T00:51:52.631Z,10.64
2019-05-18T00:54:38.755Z,10.51
2019-05-18T00:57:24.886Z,10.41
2019-05-18T01:00:11.843Z,10.35
2019-05-18T01:02:57.702Z,10.27
2019-05-18T01:05:43.938Z,10.12
2019-05-18T01:08:30.117Z,10.06
2019-05-18T01:11:16.312Z,10.03
2019-05-18T01:14:02.580Z,10.01
2019-05-18T01:16:48.716Z,9.88
2019-05-18T01:19:34.759Z,9.82
2019-05-18T01:22:21.157Z,9.78
2019-05-18T01:25:07.297Z,9.78
2019-05-18T01:27:53.176Z,9.78
2019-05-18T01:30:39.454Z,9.77
2019-05-18T01:33:25.454Z,9.65
2019-05-18T01:36:11.635Z,9.51
2019-05-18T01:38:57.561Z,9.36
2019-05-18T01:41:43.861Z,9.47
2019-05-18T01:44:30.165Z,9.50
2019-05-18T01:47:16.285Z,9.48
2019-05-18T01:50:02.570Z,9.49
2019-05-18T01:52:48.860Z,9.40
2019-05-18T01:55:34.925Z,9.42
2019-05-18T01:58:21.059Z,9.40
2019-05-18T02:01:07.470Z,9.45
2019-05-18T02:03:53.337Z,9.36
2019-05-18T02:06:39.631Z,9.44
2019-05-18T02:09:25.781Z,9.43
2019-05-18T02:12:11.887Z,9.38
2019-05-18T02:14:58.021Z,9.33
2019-05-18T02:17:44.005Z,9.31
2019-05-18T02:20:30.200Z,9.32
2019-05-18T02:23:16.565Z,9.30
2019-05-18T02:26:02.721Z,9.29
2019-05-18T02:28:48.680Z,9.25
2019-05-18T02:31:34.923Z,9.24
2019-05-18T02:34:20.938Z,9.16
2019-05-18T02:37:07.158Z,9.03
2019-05-18T02:39:55.087Z,9.04
2019-05-18T02:42:41.303Z,8.99
2019-05-18T02:45:27.475Z,8.97
2019-05-18T02:48:13.695Z,8.90
2019-05-18T02:50:59.831Z,8.91
2019-05-18T02:53:46.032Z,8.84
2019-05-18T02:56:32.046Z,8.80
2019-05-18T02:59:18.138Z,8.80
2019-05-18T03:02:04.547Z,8.66
2019-05-18T03:04:50.545Z,8.63
2019-05-18T03:07:36.681Z,8.65
2019-05-18T03:10:23.032Z,8.59
2019-05-18T03:13:09.112Z,8.57
2019-05-18T03:15:55.385Z,8.55
2019-05-18T03:18:41.483Z,8.51
2019-05-18T03:21:27.673Z,8.42
2019-05-18T03:24:13.802Z,8.39
2019-05-18T03:26:59.851Z,8.44
2019-05-18T03:29:45.981Z,8.35
2019-05-18T03:32:32.337Z,8.33
2019-05-18T03:35:18.344Z,8.28
2019-05-18T03:38:04.640Z,8.36
2019-05-18T03:40:50.721Z,8.24
2019-05-18T03:43:36.742Z,8.42
2019-05-18T03:46:24.055Z,8.74
2019-05-18T03:49:25.240Z,8.81
2019-05-18T03:51:58.997Z,8.92
2019-05-18T03:54:45.038Z,9.26
2019-05-18T03:57:31.355Z,9.14
2019-05-18T04:00:17.544Z,9.48
2019-05-18T04:03:03.562Z,9.67
2019-05-18T04:05:49.697Z,9.90
2019-05-18T04:08:35.792Z,10.00
2019-05-18T04:11:22.089Z,10.35
2019-05-18T04:14:08.921Z,10.50
2019-05-18T04:16:57.397Z,10.88
2019-05-18T04:19:46.788Z,11.26
2019-05-18T04:22:31.813Z,11.27
2019-05-18T04:25:17.961Z,11.42
2019-05-18T04:28:04.117Z,11.66
2019-05-18T04:30:50.284Z,11.72
2019-05-18T04:33:36.372Z,12.24
2019-05-18T04:36:22.497Z,11.80
2019-05-18T04:39:08.716Z,11.56
2019-05-18T04:41:54.830Z,11.55
2019-05-18T04:44:41.022Z,11.32
2019-05-18T04:47:27.142Z,10.96
2019-05-18T04:50:13.400Z,11.10
2019-05-18T04:52:59.841Z,11.69
2019-05-18T04:55:45.883Z,12.33
2019-05-18T04:58:31.983Z,13.13
2019-05-18T05:01:18.283Z,13.31
2019-05-18T05:04:04.439Z,13.83
2019-05-18T05:06:50.506Z,14.24
2019-05-18T05:09:36.591Z,15.20
2019-05-18T05:12:22.741Z,15.12
2019-05-18T05:15:08.914Z,15.59
2019-05-18T05:17:54.966Z,15.91
2019-05-18T05:20:41.056Z,16.24
2019-05-18T05:23:27.370Z,16.56
2019-05-18T05:26:13.391Z,16.74
2019-05-18T05:28:59.711Z,16.60
2019-05-18T05:31:45.992Z,17.36
2019-05-18T05:34:32.270Z,16.88
2019-05-18T05:37:18.380Z,17.23
2019-05-18T05:40:05.300Z,16.59
2019-05-18T05:42:51.806Z,16.22
2019-05-18T05:45:38.030Z,16.56
2019-05-18T05:48:24.146Z,17.05
2019-05-18T05:51:10.251Z,16.86
2019-05-18T05:53:56.450Z,16.69
2019-05-18T05:56:42.471Z,16.97
2019-05-18T05:59:28.653Z,17.17
2019-05-18T06:02:14.781Z,18.03
2019-05-18T06:05:00.915Z,18.65
2019-05-18T06:07:46.966Z,17.79
2019-05-18T06:10:33.151Z,18.19
2019-05-18T06:13:19.126Z,18.40
2019-05-18T06:16:05.285Z,19.06
2019-05-18T06:18:51.406Z,18.13
2019-05-18T06:21:37.491Z,17.65
2019-05-18T06:24:23.847Z,17.36
2019-05-18T06:27:09.980Z,17.56
2019-05-18T06:29:58.390Z,19.08
2019-05-18T06:32:44.539Z,18.23
2019-05-18T06:35:30.706Z,18.07
2019-05-18T06:38:17.243Z,17.94
2019-05-18T06:41:03.362Z,18.56
2019-05-18T06:43:49.602Z,17.62
2019-05-18T06:46:35.827Z,18.22
2019-05-18T06:49:22.030Z,19.25
2019-05-18T06:52:08.045Z,19.03
2019-05-18T06:54:54.320Z,19.86
2019-05-18T06:57:40.206Z,20.54
2019-05-18T07:00:26.427Z,21.39
2019-05-18T07:03:12.535Z,20.61
2019-05-18T07:05:58.716Z,18.92
2019-05-18T07:08:44.899Z,20.74
2019-05-18T07:11:31.201Z,20.23
2019-05-18T07:14:25.371Z,20.82
2019-05-18T07:17:05.501Z,19.85
2019-05-18T07:19:51.746Z,22.11
2019-05-18T07:22:37.805Z,22.51
2019-05-18T07:25:23.999Z,22.51
2019-05-18T07:28:10.221Z,22.56
2019-05-18T07:30:56.315Z,22.57
2019-05-18T07:33:42.593Z,20.06
2019-05-18T07:36:28.748Z,20.74
2019-05-18T07:39:14.875Z,20.55
2019-05-18T07:42:00.960Z,20.66
2019-05-18T07:44:46.982Z,20.51
2019-05-18T07:47:33.100Z,21.08
2019-05-18T07:50:19.735Z,21.75
2019-05-18T07:53:05.600Z,21.28
2019-05-18T07:55:51.763Z,21.66
2019-05-18T07:58:37.984Z,21.22
2019-05-18T08:01:24.086Z,22.21
2019-05-18T08:04:10.285Z,22.80
2019-05-18T08:06:56.371Z,22.93
2019-05-18T08:09:42.650Z,22.39
2019-05-18T08:12:28.856Z,23.31
2019-05-18T08:15:14.991Z,22.32
2019-05-18T08:18:01.095Z,23.02
2019-05-18T08:20:47.602Z,22.96
2019-05-18T08:23:33.505Z,24.00
2019-05-18T08:26:19.711Z,24.25
2019-05-18T08:29:06.098Z,23.42
2019-05-18T08:31:52.235Z,23.58
2019-05-18T08:34:38.460Z,22.60
2019-05-18T08:37:24.546Z,22.65
2019-05-18T08:40:11.190Z,22.74
2019-05-18T08:42:57.156Z,22.99
2019-05-18T08:45:43.525Z,22.92
2019-05-18T08:48:29.315Z,23.60
2019-05-18T08:51:15.596Z,23.80
2019-05-18T08:54:01.706Z,23.38
2019-05-18T08:56:47.901Z,21.88
2019-05-18T08:59:34.205Z,23.49
2019-05-18T09:02:20.351Z,24.68
2019-05-18T09:05:06.830Z,23.52
2019-05-18T09:07:53.254Z,24.25
2019-05-18T09:10:39.493Z,23.51
2019-05-18T09:13:25.925Z,23.44
2019-05-18T09:16:12.242Z,22.77
2019-05-18T09:18:58.320Z,23.45
2019-05-18T09:21:44.651Z,23.62
2019-05-18T09:24:30.658Z,23.52
2019-05-18T09:27:16.767Z,24.49
2019-05-18T09:30:03.616Z,23.43
2019-05-18T09:32:49.877Z,24.69
2019-05-18T09:35:36.136Z,22.78
2019-05-18T09:38:22.627Z,23.25
2019-05-18T09:41:08.545Z,23.09
2019-05-18T09:43:54.731Z,23.12
2019-05-18T09:46:41.102Z,22.67
2019-05-18T09:49:27.206Z,23.18
2019-05-18T09:52:13.551Z,23.33
2019-05-18T09:54:59.340Z,23.25
2019-05-18T09:57:45.565Z,23.00
2019-05-18T10:00:38.427Z,23.54
2019-05-18T10:03:19.891Z,23.84
2019-05-18T10:06:06.219Z,23.62
2019-05-18T10:08:52.270Z,23.63
2019-05-18T10:11:38.888Z,23.47
2019-05-18T10:14:25.479Z,23.43
2019-05-18T10:17:11.736Z,23.05
2019-05-18T10:19:57.760Z,24.22
2019-05-18T10:22:55.586Z,22.65
2019-05-18T10:25:32.391Z,22.89
2019-05-18T10:28:18.611Z,23.62
2019-05-18T10:31:04.817Z,23.62
2019-05-18T10:33:51.121Z,23.30
2019-05-18T10:36:37.275Z,23.30
2019-05-18T10:39:23.356Z,23.64
2019-05-18T10:42:09.777Z,24.75
2019-05-18T10:44:55.945Z,24.37
2019-05-18T10:47:42.291Z,24.01
2019-05-18T10:50:28.496Z,24.32
2019-05-18T10:53:27.856Z,23.15
2019-05-18T10:56:02.746Z,22.84
2019-05-18T10:58:49.127Z,23.41
2019-05-18T11:01:35.211Z,23.64
2019-05-18T11:04:21.380Z,23.67
2019-05-18T11:07:07.501Z,24.43
2019-05-18T11:09:53.480Z,23.88
2019-05-18T11:12:39.980Z,23.87
2019-05-18T11:15:26.386Z,23.21
2019-05-18T11:18:12.649Z,24.32
2019-05-18T11:20:58.926Z,24.07
2019-05-18T11:23:47.987Z,24.72
2019-05-18T11:26:33.177Z,24.27
2019-05-18T11:29:22.950Z,23.10
2019-05-18T11:32:08.187Z,23.10
2019-05-18T11:34:54.194Z,22.81
2019-05-18T11:37:40.357Z,23.45
2019-05-18T11:40:26.496Z,23.58
2019-05-18T11:43:12.641Z,23.57
2019-05-18T11:45:58.750Z,23.10
2019-05-18T11:48:44.815Z,23.31
2019-05-18T11:51:30.831Z,22.87
2019-05-18T11:54:17.252Z,23.43
2019-05-18T11:57:03.173Z,23.83
2019-05-18T11:59:49.251Z,23.61
2019-05-18T12:02:35.340Z,22.80
2019-05-18T12:05:21.481Z,22.76
2019-05-18T12:08:07.646Z,22.44
2019-05-18T12:10:56.131Z,22.88
2019-05-18T12:13:41.752Z,22.89
2019-05-18T12:16:28.014Z,23.08
2019-05-18T12:19:14.132Z,23.47
2019-05-18T12:22:00.223Z,23.63
2019-05-18T12:24:46.587Z,23.64
2019-05-18T12:27:32.696Z,23.78
2019-05-18T12:30:19.096Z,23.88
2019-05-18T12:33:05.110Z,24.15
2019-05-18T12:35:51.091Z,24.26
2019-05-18T12:38:37.266Z,24.38
2019-05-18T12:41:29.041Z,23.22
2019-05-18T12:44:15.484Z,23.03
2019-05-18T12:47:01.590Z,23.12
2019-05-18T12:49:47.871Z,23.48
2019-05-18T12:52:33.990Z,23.86
2019-05-18T12:55:20.115Z,24.08
2019-05-18T12:58:06.700Z,24.06
2019-05-18T13:00:52.535Z,23.11
2019-05-18T13:03:38.749Z,23.08
2019-05-18T13:06:25.017Z,22.96
2019-05-18T13:09:11.130Z,23.17
2019-05-18T13:11:57.186Z,22.97
2019-05-18T13:14:43.317Z,23.14
2019-05-18T13:17:29.261Z,22.96
2019-05-18T13:20:17.194Z,22.82
2019-05-18T13:23:03.725Z,22.47
2019-05-18T13:25:49.750Z,22.43
2019-05-18T13:28:35.971Z,23.10
2019-05-18T13:31:22.079Z,23.04
2019-05-18T13:34:08.136Z,23.20
2019-05-18T13:36:54.456Z,23.41
2019-05-18T13:39:40.641Z,23.29
2019-05-18T13:42:26.651Z,23.15
2019-05-18T13:45:13.756Z,23.11
2019-05-18T13:47:59.515Z,22.95
2019-05-18T13:50:45.695Z,22.74
2019-05-18T13:53:31.883Z,22.14
2019-05-18T13:56:18.026Z,22.27
2019-05-18T13:59:04.191Z,22.39
2019-05-18T14:01:50.285Z,22.32
2019-05-18T14:04:36.371Z,22.70
2019-05-18T14:07:22.503Z,23.24
2019-05-18T14:10:12.430Z,23.38
2019-05-18T14:12:58.152Z,22.86
2019-05-18T14:15:44.448Z,22.83
2019-05-18T14:18:30.526Z,22.69
2019-05-18T14:21:16.565Z,22.52
2019-05-18T14:24:02.842Z,22.36
2019-05-18T14:26:48.912Z,22.33
2019-05-18T14:29:35.128Z,22.32
2019-05-18T14:32:21.436Z,22.53
2019-05-18T14:35:07.560Z,22.57
2019-05-18T14:37:53.761Z,22.62
2019-05-18T14:40:40.394Z,22.55
2019-05-18T14:43:26.413Z,22.93
2019-05-18T14:46:12.666Z,22.96
2019-05-18T14:48:58.851Z,22.91
2019-05-18T14:51:44.993Z,23.00
2019-05-18T14:54:31.220Z,23.02
2019-05-18T14:57:17.190Z,23.21
2019-05-18T15:00:03.747Z,22.84
2019-05-18T15:02:50.265Z,22.95
2019-05-18T15:05:38.682Z,22.71
2019-05-18T15:08:24.462Z,23.17
2019-05-18T15:11:11.906Z,23.54
2019-05-18T15:13:57.928Z,23.57
2019-05-18T15:16:43.983Z,23.56
2019-05-18T15:19:30.106Z,23.38
2019-05-18T15:22:16.147Z,23.15
2019-05-18T15:25:02.357Z,22.83
2019-05-18T15:27:48.597Z,22.51
2019-05-18T15:30:34.670Z,22.51
2019-05-18T15:33:21.037Z,22.66
2019-05-18T15:36:07.260Z,22.55
2019-05-18T15:38:53.440Z,22.65
2019-05-18T15:41:39.776Z,22.66
2019-05-18T15:44:25.881Z,22.57
2019-05-18T15:47:11.936Z,22.62
2019-05-18T15:49:58.310Z,22.83
2019-05-18T15:52:44.255Z,22.64
2019-05-18T15:55:30.385Z,22.67
2019-05-18T15:58:16.742Z,22.77
2019-05-18T16:01:02.811Z,22.68
2019-05-18T16:03:48.945Z,22.90
2019-05-18T16:06:35.121Z,22.54
2019-05-18T16:09:21.243Z,22.43
2019-05-18T16:12:07.442Z,22.40
2019-05-18T16:14:53.405Z,22.11
2019-05-18T16:17:40.437Z,22.20
2019-05-18T16:20:27.005Z,22.25
2019-05-18T16:23:13.045Z,22.30
2019-05-18T16:25:59.240Z,22.33
2019-05-18T16:28:45.426Z,21.94
2019-05-18T16:31:31.606Z,22.08
2019-05-18T16:34:17.734Z,22.01
2019-05-18T16:37:03.928Z,21.90
2019-05-18T16:39:50.042Z,22.05
2019-05-18T16:42:36.336Z,21.99
2019-05-18T16:45:22.631Z,21.88
2019-05-18T16:48:08.411Z,21.87
2019-05-18T16:50:54.655Z,21.94
2019-05-18T16:53:40.785Z,22.00
2019-05-18T16:56:34.920Z,21.95
2019-05-18T16:59:15.301Z,22.01
2019-05-18T17:02:01.382Z,22.13
2019-05-18T17:04:47.380Z,21.87
2019-05-18T17:07:33.780Z,21.89
2019-05-18T17:10:20.141Z,21.87
2019-05-18T17:13:05.940Z,21.83
2019-05-18T17:15:52.266Z,21.67
2019-05-18T17:18:38.266Z,21.70
2019-05-18T17:21:24.661Z,21.61
2019-05-18T17:24:10.841Z,21.46
2019-05-18T17:26:56.934Z,21.47
2019-05-18T17:29:42.950Z,21.49
2019-05-18T17:32:28.970Z,21.28
2019-05-18T17:35:15.173Z,21.35
2019-05-18T17:38:01.318Z,21.40
2019-05-18T17:40:47.380Z,21.47
2019-05-18T17:43:33.419Z,21.42
2019-05-18T17:46:19.740Z,21.31
2019-05-18T17:49:05.946Z,21.25
2019-05-18T17:51:52.106Z,21.31
2019-05-18T17:54:38.045Z,21.24
2019-05-18T17:57:24.095Z,21.10
2019-05-18T18:00:11.591Z,21.10
2019-05-18T18:02:57.337Z,20.96
2019-05-18T18:05:43.590Z,20.99
2019-05-18T18:08:29.702Z,21.02
2019-05-18T18:11:15.981Z,20.91
2019-05-18T18:14:02.029Z,20.87
2019-05-18T18:16:48.360Z,20.85
2019-05-18T18:19:34.388Z,20.81
2019-05-18T18:22:23.735Z,20.69
2019-05-18T18:25:08.831Z,20.61
2019-05-18T18:27:54.696Z,20.59
2019-05-18T18:30:41.007Z,20.49
2019-05-18T18:33:27.144Z,20.49
2019-05-18T18:36:13.545Z,20.42
2019-05-18T18:39:01.917Z,20.40
2019-05-18T18:41:55.527Z,20.32
2019-05-18T18:44:42.105Z,20.22
2019-05-18T18:47:28.166Z,20.11
2019-05-18T18:50:15.441Z,20.08
2019-05-18T18:53:01.606Z,20.01
2019-05-18T18:55:47.676Z,19.92
2019-05-18T18:58:33.821Z,19.87
2019-05-18T19:01:20.207Z,19.74
2019-05-18T19:04:06.201Z,19.63
2019-05-18T19:06:52.921Z,19.60
2019-05-18T19:09:39.221Z,19.38
2019-05-18T19:12:25.266Z,19.37
2019-05-18T19:15:11.672Z,19.32
2019-05-18T19:17:57.495Z,19.20
2019-05-18T19:20:43.543Z,19.11
2019-05-18T19:23:29.738Z,19.06
2019-05-18T19:26:15.815Z,18.98
2019-05-18T19:29:01.831Z,18.89
2019-05-18T19:31:48.142Z,18.89
2019-05-18T19:34:34.166Z,18.80
2019-05-18T19:37:20.311Z,18.74
2019-05-18T19:40:06.713Z,18.61
2019-05-18T19:42:53.086Z,18.55
2019-05-18T19:45:40.291Z,18.51
2019-05-18T19:48:26.515Z,18.45
2019-05-18T19:51:15.836Z,18.33
2019-05-18T19:54:00.422Z,18.09
2019-05-18T19:56:46.992Z,17.84
2019-05-18T19:59:33.718Z,17.57
2019-05-18T20:02:19.946Z,17.33
2019-05-18T20:05:08.654Z,17.15
2019-05-18T20:07:54.829Z,16.92
2019-05-18T20:10:40.926Z,16.69
2019-05-18T20:13:27.106Z,16.48
2019-05-18T20:16:13.141Z,16.41
2019-05-18T20:18:59.516Z,16.35
2019-05-18T20:21:45.666Z,16.30
2019-05-18T20:24:31.740Z,16.19
2019-05-18T20:27:17.992Z,16.12
2019-05-18T20:30:04.306Z,16.00
2019-05-18T20:32:50.273Z,15.79
2019-05-18T20:35:36.693Z,15.68
2019-05-18T20:38:22.806Z,15.68
2019-05-18T20:41:09.023Z,15.62
2019-05-18T20:43:55.380Z,15.57
2019-05-18T20:46:41.426Z,15.47
2019-05-18T20:49:27.671Z,15.43
2019-05-18T20:52:13.770Z,15.34
2019-05-18T20:54:59.941Z,15.23
2019-05-18T20:57:46.221Z,15.27
2019-05-18T21:00:32.250Z,15.14
2019-05-18T21:03:18.485Z,15.21
2019-05-18T21:06:04.695Z,15.16
2019-05-18T21:08:50.666Z,15.05
2019-05-18T21:11:36.791Z,14.95
2019-05-18T21:14:23.080Z,14.89
2019-05-18T21:17:09.156Z,14.75
2019-05-18T21:19:55.281Z,14.65
2019-05-18T21:22:41.321Z,14.60
2019-05-18T21:25:27.325Z,14.59
2019-05-18T21:28:13.417Z,14.48
2019-05-18T21:30:59.522Z,14.40
2019-05-18T21:33:45.755Z,14.31
2019-05-18T21:36:32.269Z,14.25
2019-05-18T21:39:18.361Z,14.21
2019-05-18T21:42:04.505Z,14.23
2019-05-18T21:44:50.862Z,14.13
2019-05-18T21:47:36.920Z,14.01
2019-05-18T21:50:23.265Z,13.88
2019-05-18T21:53:09.330Z,13.86
2019-05-18T21:55:55.545Z,13.79
2019-05-18T21:58:41.920Z,13.71
2019-05-18T22:01:27.995Z,13.65
2019-05-18T22:04:14.153Z,13.57
2019-05-18T22:07:00.502Z,13.61
2019-05-18T22:09:46.571Z,13.40
2019-05-18T22:12:32.633Z,13.40
2019-05-18T22:15:18.976Z,13.41
2019-05-18T22:18:05.317Z,13.38
2019-05-18T22:20:51.631Z,13.30
2019-05-18T22:23:37.990Z,13.26
2019-05-18T22:26:24.062Z,13.24
2019-05-18T22:29:10.330Z,13.23
2019-05-18T22:31:56.260Z,13.14
2019-05-18T22:34:42.555Z,13.03
2019-05-18T22:37:28.701Z,12.96
2019-05-18T22:40:14.780Z,12.94
2019-05-18T22:43:00.860Z,12.90
2019-05-18T22:45:47.187Z,12.71
2019-05-18T22:48:41.460Z,12.65
2019-05-18T22:51:21.356Z,12.55
2019-05-18T22:54:07.706Z,12.43
2019-05-18T22:56:53.820Z,12.43
2019-05-18T22:59:40.006Z,12.46
2019-05-18T23:02:26.237Z,12.48
2019-05-18T23:05:12.543Z,12.45
2019-05-18T23:07:58.602Z,12.47
2019-05-18T23:10:44.658Z,12.44
2019-05-18T23:13:30.760Z,12.52
2019-05-18T23:16:16.996Z,12.43
2019-05-18T23:19:03.125Z,12.18
2019-05-18T23:21:49.133Z,12.11
2019-05-18T23:24:35.363Z,12.03
2019-05-18T23:27:21.406Z,12.05
2019-05-18T23:30:08.090Z,12.06
2019-05-18T23:32:54.286Z,12.12
2019-05-18T23:35:40.381Z,12.19
2019-05-18T23:38:26.521Z,12.13
2019-05-18T23:41:12.662Z,12.09
2019-05-18T23:43:58.690Z,12.11
2019-05-18T23:46:44.976Z,12.12
2019-05-18T23:49:31.073Z,12.11
2019-05-18T23:52:17.300Z,11.94
2019-05-18T23:55:04.340Z,11.81
2019-05-18T23:57:50.691Z,11.68
